createdAt,value
2023-04-29T00:01:37.172Z,101432.72
2023-04-29T00:06:38.873Z,101439.81
2023-04-29T00:11:40.628Z,101438.72
2023-04-29T00:16:42.384Z,101443.22
2023-04-29T00:21:44.198Z,101449.06
2023-04-29T00:26:45.854Z,101460.63
2023-04-29T00:31:48.384Z,101462.94
2023-04-29T00:36:50.589Z,101477.53
2023-04-29T00:41:53.464Z,101482.31
2023-04-29T00:46:55.964Z,101486.91
2023-04-29T00:51:58.166Z,101482.09
2023-04-29T00:57:01.644Z,101495.53
2023-04-29T01:02:05.065Z,101491.75
2023-04-29T01:07:16.134Z,101493.66
2023-04-29T01:12:45.629Z,101502.13
2023-04-29T01:18:00.395Z,101512.75
2023-04-29T01:23:02.563Z,101510.16
2023-04-29T01:28:42.344Z,101519.06
2023-04-29T01:34:20.396Z,101518.28
2023-04-29T01:39:42.085Z,101525.00
2023-04-29T01:44:52.714Z,101525.66
2023-04-29T01:49:57.092Z,101532.56
2023-04-29T01:54:58.884Z,101523.91
2023-04-29T02:00:07.010Z,101534.09
2023-04-29T02:05:26.475Z,101534.75
2023-04-29T02:10:31.541Z,101531.69
2023-04-29T02:15:48.021Z,101546.47
2023-04-29T02:20:51.906Z,101552.56
2023-04-29T02:25:55.706Z,101559.47
2023-04-29T02:30:59.407Z,101564.03
2023-04-29T02:36:01.077Z,101566.78
2023-04-29T02:41:02.784Z,101562.88
2023-04-29T02:46:04.833Z,101580.41
2023-04-29T02:51:06.764Z,101575.44
2023-04-29T02:56:08.488Z,101582.25
2023-04-29T03:01:10.309Z,101589.16
2023-04-29T03:06:11.991Z,101597.59
2023-04-29T03:11:13.675Z,101596.22
2023-04-29T03:16:18.953Z,101596.41
2023-04-29T03:21:20.663Z,101605.50
2023-04-29T03:26:24.330Z,101605.66
2023-04-29T03:31:27.550Z,101612.56
2023-04-29T03:36:29.488Z,101608.97
2023-04-29T03:41:37.774Z,101616.72
2023-04-29T03:46:40.839Z,101623.97
2023-04-29T03:51:45.216Z,101617.75
2023-04-29T03:56:50.201Z,101629.84
2023-04-29T04:01:54.155Z,101632.75
2023-04-29T04:06:56.724Z,101637.59
2023-04-29T04:12:02.952Z,101642.75
2023-04-29T04:17:04.810Z,101644.72
2023-04-29T04:22:07.829Z,101647.97
2023-04-29T04:27:13.440Z,101664.16
2023-04-29T04:32:21.815Z,101672.44
2023-04-29T04:37:23.823Z,101685.94
2023-04-29T04:42:29.404Z,101678.78
2023-04-29T04:47:33.419Z,101695.63
2023-04-29T04:52:39.751Z,101697.34
2023-04-29T04:57:55.551Z,101706.78
2023-04-29T05:02:58.146Z,101709.75
2023-04-29T05:08:00.337Z,101711.09
2023-04-29T05:13:08.468Z,101722.19
2023-04-29T05:18:11.905Z,101731.41
2023-04-29T05:23:15.721Z,101732.19
2023-04-29T05:28:20.281Z,101733.91
2023-04-29T05:33:22.399Z,101742.78
2023-04-29T05:38:29.377Z,101742.25
2023-04-29T05:43:48.704Z,101748.91
2023-04-29T05:48:50.875Z,101760.41
2023-04-29T05:53:52.683Z,101762.03
2023-04-29T05:58:54.649Z,101772.25
2023-04-29T06:03:56.787Z,101775.34
2023-04-29T06:09:08.629Z,101781.22
2023-04-29T06:14:16.075Z,101786.72
2023-04-29T06:19:20.888Z,101806.19
2023-04-29T06:24:23.622Z,101791.16
2023-04-29T06:29:25.451Z,101809.22
2023-04-29T06:34:27.174Z,101818.13
2023-04-29T06:39:50.185Z,101826.75
2023-04-29T06:45:12.226Z,101829.44
2023-04-29T06:50:31.720Z,101843.34
2023-04-29T06:55:35.690Z,101844.41
2023-04-29T07:00:38.292Z,101856.19
2023-04-29T07:05:41.897Z,101857.47
2023-04-29T07:10:43.786Z,101865.09
2023-04-29T07:15:45.452Z,101874.84
2023-04-29T07:20:48.610Z,101881.44
2023-04-29T07:25:50.559Z,101881.19
2023-04-29T07:30:52.863Z,101890.06
2023-04-29T07:35:54.695Z,101888.72
2023-04-29T07:40:56.612Z,101888.44
2023-04-29T07:46:01.835Z,101898.75
2023-04-29T07:51:03.795Z,101902.38
2023-04-29T07:56:07.649Z,101901.56
2023-04-29T08:01:10.461Z,101916.63
2023-04-29T08:06:12.724Z,101915.13
2023-04-29T08:11:18.903Z,101915.13
2023-04-29T08:16:21.977Z,101918.81
2023-04-29T08:21:24.077Z,101919.03
2023-04-29T08:26:26.058Z,101922.88
2023-04-29T08:31:27.724Z,101922.09
2023-04-29T08:36:29.963Z,101929.91
2023-04-29T08:41:33.212Z,101938.50
2023-04-29T08:46:34.999Z,101934.84
2023-04-29T08:51:36.890Z,101946.13
2023-04-29T08:56:39.814Z,101939.84
2023-04-29T09:01:43.050Z,101947.13
2023-04-29T09:06:45.510Z,101954.13
2023-04-29T09:11:48.362Z,101942.41
2023-04-29T09:16:50.611Z,101954.13
2023-04-29T09:21:58.149Z,101960.06
2023-04-29T09:27:00.434Z,101960.22
2023-04-29T09:32:21.624Z,101960.63
2023-04-29T09:37:26.259Z,101959.69
2023-04-29T09:42:27.930Z,101957.88
2023-04-29T09:47:34.022Z,101969.13
2023-04-29T09:52:42.501Z,101973.81
2023-04-29T09:57:45.764Z,101969.78
2023-04-29T10:02:51.787Z,101972.50
2023-04-29T10:07:54.444Z,101973.25
2023-04-29T10:12:56.733Z,101972.25
2023-04-29T10:18:20.651Z,101974.81
2023-04-29T10:23:23.805Z,101974.72
2023-04-29T10:28:27.808Z,101964.38
2023-04-29T10:33:35.423Z,101972.06
2023-04-29T10:38:44.878Z,101962.66
2023-04-29T10:43:50.395Z,101969.09
2023-04-29T10:48:59.612Z,101971.59
2023-04-29T10:54:14.705Z,101967.66
2023-04-29T10:59:21.110Z,101964.59
2023-04-29T11:04:23.471Z,101971.69
2023-04-29T11:09:35.458Z,101969.41
2023-04-29T11:14:52.693Z,101967.75
2023-04-29T11:19:56.217Z,101989.53
2023-04-29T11:25:02.123Z,101987.00
2023-04-29T11:30:06.539Z,101982.22
2023-04-29T11:35:09.676Z,101983.69
2023-04-29T11:40:13.271Z,101995.06
2023-04-29T11:45:21.140Z,101992.38
2023-04-29T11:50:23.484Z,101992.03
2023-04-29T11:55:27.381Z,102002.88
2023-04-29T12:00:31.230Z,102003.03
2023-04-29T12:05:32.944Z,102006.63
2023-04-29T12:10:37.425Z,101992.72
2023-04-29T12:15:40.355Z,101995.88
2023-04-29T12:20:42.368Z,101997.38
2023-04-29T12:25:55.519Z,101996.78
2023-04-29T12:30:59.101Z,101989.44
2023-04-29T12:36:25.274Z,102000.09
2023-04-29T12:41:44.335Z,102007.00
2023-04-29T12:46:46.159Z,102008.59
2023-04-29T12:51:51.109Z,102008.78
2023-04-29T12:56:53.814Z,102009.56
2023-04-29T13:01:55.752Z,102005.84
2023-04-29T13:07:00.929Z,101999.47
2023-04-29T13:12:02.966Z,102013.25
2023-04-29T13:17:06.194Z,102010.75
2023-04-29T13:22:07.901Z,102011.59
2023-04-29T13:27:10.493Z,102018.91
2023-04-29T13:32:12.550Z,102020.06
2023-04-29T13:37:14.298Z,102032.66
2023-04-29T13:42:20.142Z,102021.06
2023-04-29T13:47:26.043Z,102028.94
2023-04-29T13:58:03.039Z,102030.25
2023-04-29T14:08:01.484Z,102044.13
2023-04-29T14:13:03.297Z,102052.19
2023-04-29T14:18:07.647Z,102056.34
2023-04-29T14:23:09.395Z,102056.22
2023-04-29T14:28:11.488Z,102060.25
2023-04-29T14:33:13.189Z,102056.81
2023-04-29T14:38:14.901Z,102061.84
2023-04-29T14:43:16.584Z,102059.13
2023-04-29T14:48:19.913Z,102063.34
2023-04-29T14:53:22.082Z,102069.25
2023-04-29T14:58:23.865Z,102068.41
2023-04-29T15:03:26.104Z,102069.38
2023-04-29T15:08:28.097Z,102076.78
2023-04-29T15:13:30.198Z,102084.25
2023-04-29T15:18:33.634Z,102078.78
2023-04-29T15:23:35.285Z,102083.25
2023-04-29T15:28:38.175Z,102077.28
2023-04-29T15:33:39.906Z,102092.22
2023-04-29T15:38:41.789Z,102103.63
2023-04-29T15:43:43.478Z,102107.53
2023-04-29T15:48:45.419Z,102099.13
2023-04-29T15:53:49.474Z,102099.59
2023-04-29T15:58:53.290Z,102091.47
2023-04-29T16:03:54.971Z,102091.84
2023-04-29T16:08:56.796Z,102107.47
2023-04-29T16:13:58.551Z,102109.84
2023-04-29T16:19:00.247Z,102118.81
2023-04-29T16:24:04.236Z,102128.31
2023-04-29T16:29:06.402Z,102135.72
2023-04-29T16:34:08.064Z,102128.28
2023-04-29T16:39:09.750Z,102130.94
2023-04-29T16:44:11.799Z,102138.34
2023-04-29T16:49:15.394Z,102138.81
2023-04-29T16:54:18.434Z,102131.81
2023-04-29T16:59:20.629Z,102129.38
2023-04-29T17:04:23.090Z,102134.22
2023-04-29T17:09:26.007Z,102133.28
2023-04-29T17:14:27.808Z,102128.09
2023-04-29T17:19:29.687Z,102129.72
2023-04-29T17:24:32.672Z,102124.16
2023-04-29T17:29:34.339Z,102121.09
2023-04-29T17:34:37.411Z,102118.31
2023-04-29T17:39:41.064Z,102122.59
2023-04-29T17:44:42.659Z,102122.53
2023-04-29T17:49:44.470Z,102123.03
2023-04-29T17:54:46.115Z,102120.97
2023-04-29T17:59:50.132Z,102122.06
2023-04-29T18:04:53.966Z,102124.16
2023-04-29T18:09:56.115Z,102131.63
2023-04-29T18:14:58.023Z,102139.03
2023-04-29T18:19:59.696Z,102137.94
2023-04-29T18:25:01.369Z,102143.56
2023-04-29T18:30:05.905Z,102145.84
2023-04-29T18:35:09.613Z,102142.53
2023-04-29T18:40:11.941Z,102153.72
2023-04-29T18:45:13.624Z,102149.03
2023-04-29T18:50:15.342Z,102158.56
2023-04-29T18:55:17.043Z,102149.75
2023-04-29T19:00:19.904Z,102163.63
2023-04-29T19:05:21.723Z,102162.25
2023-04-29T19:10:23.541Z,102160.50
2023-04-29T19:15:27.968Z,102161.53
2023-04-29T19:20:29.754Z,102165.31
2023-04-29T19:25:31.985Z,102177.09
2023-04-29T19:30:34.862Z,102180.53
2023-04-29T19:35:36.749Z,102183.44
2023-04-29T19:40:38.561Z,102185.16
2023-04-29T19:45:40.681Z,102192.94
2023-04-29T19:50:42.402Z,102185.63
2023-04-29T19:55:44.673Z,102198.75
2023-04-29T20:00:46.414Z,102203.19
2023-04-29T20:05:49.429Z,102199.41
2023-04-29T20:10:51.222Z,102216.53
2023-04-29T20:15:54.349Z,102215.59
2023-04-29T20:20:56.435Z,102214.53
2023-04-29T20:25:58.405Z,102218.69
2023-04-29T20:31:00.151Z,102221.59
2023-04-29T20:36:06.546Z,102217.91
2023-04-29T20:41:08.428Z,102220.44
2023-04-29T20:46:12.201Z,102226.22
2023-04-29T20:51:14.166Z,102228.53
2023-04-29T20:56:16.248Z,102237.91
2023-04-29T21:01:19.725Z,102234.13
2023-04-29T21:06:21.779Z,102234.63
2023-04-29T21:11:23.845Z,102232.97
2023-04-29T21:16:28.252Z,102236.25
2023-04-29T21:21:31.821Z,102242.97
2023-04-29T21:26:33.761Z,102250.06
2023-04-29T21:31:38.782Z,102249.91
2023-04-29T21:36:47.149Z,102242.94
2023-04-29T21:42:11.057Z,102259.22
2023-04-29T21:47:20.830Z,102259.34
2023-04-29T21:52:28.204Z,102260.06
2023-04-29T21:57:44.968Z,102260.44
2023-04-29T22:02:53.862Z,102253.53
2023-04-29T22:08:06.150Z,102243.47
2023-04-29T22:13:08.486Z,102254.72
2023-04-29T22:18:22.270Z,102254.69
2023-04-29T22:23:24.101Z,102253.19
2023-04-29T22:28:28.446Z,102261.47
2023-04-29T22:34:04.769Z,102257.28
2023-04-29T22:39:14.171Z,102249.81
2023-04-29T22:44:19.744Z,102251.28
2023-04-29T22:49:21.371Z,102252.31
2023-04-29T22:54:22.992Z,102246.09
2023-04-29T22:59:24.631Z,102244.09
2023-04-29T23:04:26.361Z,102243.81
2023-04-29T23:09:28.062Z,102250.59
2023-04-29T23:14:29.696Z,102244.94
2023-04-29T23:19:31.413Z,102262.66
2023-04-29T23:24:42.865Z,102272.06
2023-04-29T23:30:02.432Z,102265.56
2023-04-29T23:35:04.291Z,102279.78
2023-04-29T23:40:07.356Z,102277.88
2023-04-29T23:45:09.521Z,102285.44
2023-04-29T23:50:11.245Z,102287.75
2023-04-29T23:55:12.872Z,102283.38
